sensor_id;sensor_type;location;lat;lon;timestamp;temperature;humidity
9157;DHT22;4613;48.392;9.998;2023-02-03T00:01:08;4.50;99.90
9157;DHT22;4613;48.392;9.998;2023-02-03T00:03:58;4.50;99.90
9157;DHT22;4613;48.392;9.998;2023-02-03T00:06:48;4.50;99.90
9157;DHT22;4613;48.392;9.998;2023-02-03T00:09:39;4.30;99.90
9157;DHT22;4613;48.392;9.998;2023-02-03T00:12:29;4.30;99.90
9157;DHT22;4613;48.392;9.998;2023-02-03T00:15:18;4.30;99.90
9157;DHT22;4613;48.392;9.998;2023-02-03T00:18:08;4.40;99.90
9157;DHT22;4613;48.392;9.998;2023-02-03T00:20:59;4.20;99.90
9157;DHT22;4613;48.392;9.998;2023-02-03T00:23:48;4.30;99.90
9157;DHT22;4613;48.392;9.998;2023-02-03T00:26:42;4.20;99.90
9157;DHT22;4613;48.392;9.998;2023-02-03T00:29:32;4.30;99.90
9157;DHT22;4613;48.392;9.998;2023-02-03T00:32:21;4.30;99.90
9157;DHT22;4613;48.392;9.998;2023-02-03T00:35:11;4.30;99.90
9157;DHT22;4613;48.392;9.998;2023-02-03T00:38:03;4.30;99.90
9157;DHT22;4613;48.392;9.998;2023-02-03T00:40:53;4.20;99.90
9157;DHT22;4613;48.392;9.998;2023-02-03T00:43:44;4.20;99.90
9157;DHT22;4613;48.392;9.998;2023-02-03T00:46:33;4.20;99.90
9157;DHT22;4613;48.392;9.998;2023-02-03T00:49:24;4.30;99.90
9157;DHT22;4613;48.392;9.998;2023-02-03T00:52:14;4.20;99.90
9157;DHT22;4613;48.392;9.998;2023-02-03T00:55:05;4.10;99.90
9157;DHT22;4613;48.392;9.998;2023-02-03T00:57:55;4.10;99.90
9157;DHT22;4613;48.392;9.998;2023-02-03T01:00:45;4.10;99.90
9157;DHT22;4613;48.392;9.998;2023-02-03T01:03:35;4.10;99.90
9157;DHT22;4613;48.392;9.998;2023-02-03T01:06:25;4.10;99.90
9157;DHT22;4613;48.392;9.998;2023-02-03T01:09:16;4.10;99.90
9157;DHT22;4613;48.392;9.998;2023-02-03T01:12:05;4.10;99.90
9157;DHT22;4613;48.392;9.998;2023-02-03T01:14:56;4.10;99.90
9157;DHT22;4613;48.392;9.998;2023-02-03T01:17:46;4.20;99.90
9157;DHT22;4613;48.392;9.998;2023-02-03T01:20:36;4.10;99.90
9157;DHT22;4613;48.392;9.998;2023-02-03T01:23:26;4.10;99.90
9157;DHT22;4613;48.392;9.998;2023-02-03T01:26:19;4.10;99.90
9157;DHT22;4613;48.392;9.998;2023-02-03T01:29:10;4.00;99.90
9157;DHT22;4613;48.392;9.998;2023-02-03T01:31:59;4.10;99.90
9157;DHT22;4613;48.392;9.998;2023-02-03T01:34:50;4.00;99.90
9157;DHT22;4613;48.392;9.998;2023-02-03T01:37:39;4.00;99.90
9157;DHT22;4613;48.392;9.998;2023-02-03T01:40:29;4.00;99.90
9157;DHT22;4613;48.392;9.998;2023-02-03T01:43:34;4.10;99.90
9157;DHT22;4613;48.392;9.998;2023-02-03T01:46:39;4.00;99.90
9157;DHT22;4613;48.392;9.998;2023-02-03T01:49:34;4.00;99.90
9157;DHT22;4613;48.392;9.998;2023-02-03T01:52:26;3.90;99.90
9157;DHT22;4613;48.392;9.998;2023-02-03T01:55:19;4.00;99.90
9157;DHT22;4613;48.392;9.998;2023-02-03T01:58:20;4.10;99.90
9157;DHT22;4613;48.392;9.998;2023-02-03T02:01:12;4.10;99.90
9157;DHT22;4613;48.392;9.998;2023-02-03T02:04:03;4.10;99.90
9157;DHT22;4613;48.392;9.998;2023-02-03T02:06:55;4.10;99.90
9157;DHT22;4613;48.392;9.998;2023-02-03T02:09:45;4.30;99.90
9157;DHT22;4613;48.392;9.998;2023-02-03T02:12:35;4.10;99.90
9157;DHT22;4613;48.392;9.998;2023-02-03T02:31:56;4.40;99.90
9157;DHT22;4613;48.392;9.998;2023-02-03T02:41:47;4.20;99.90
9157;DHT22;4613;48.392;9.998;2023-02-03T02:44:47;4.10;99.90
9157;DHT22;4613;48.392;9.998;2023-02-03T02:47:38;4.00;99.90
9157;DHT22;4613;48.392;9.998;2023-02-03T02:50:31;4.10;99.90
9157;DHT22;4613;48.392;9.998;2023-02-03T02:53:26;4.10;99.90
9157;DHT22;4613;48.392;9.998;2023-02-03T02:56:17;4.10;99.90
9157;DHT22;4613;48.392;9.998;2023-02-03T02:59:08;4.10;99.90
9157;DHT22;4613;48.392;9.998;2023-02-03T03:01:58;4.10;99.90
9157;DHT22;4613;48.392;9.998;2023-02-03T03:04:49;4.20;99.90
9157;DHT22;4613;48.392;9.998;2023-02-03T03:07:47;4.20;99.90
9157;DHT22;4613;48.392;9.998;2023-02-03T03:10:40;4.30;99.90
9157;DHT22;4613;48.392;9.998;2023-02-03T03:13:33;4.20;99.90
9157;DHT22;4613;48.392;9.998;2023-02-03T03:16:26;4.20;99.90
9157;DHT22;4613;48.392;9.998;2023-02-03T03:19:21;4.20;99.90
9157;DHT22;4613;48.392;9.998;2023-02-03T03:22:16;4.20;99.90
9157;DHT22;4613;48.392;9.998;2023-02-03T03:25:20;4.20;99.90
9157;DHT22;4613;48.392;9.998;2023-02-03T03:28:24;4.10;99.90
9157;DHT22;4613;48.392;9.998;2023-02-03T03:31:16;4.10;99.90
9157;DHT22;4613;48.392;9.998;2023-02-03T03:34:08;4.10;99.90
9157;DHT22;4613;48.392;9.998;2023-02-03T03:37:05;4.10;99.90
9157;DHT22;4613;48.392;9.998;2023-02-03T03:39:59;4.10;99.90
9157;DHT22;4613;48.392;9.998;2023-02-03T03:42:59;4.10;99.90
9157;DHT22;4613;48.392;9.998;2023-02-03T03:46:06;4.10;99.90
9157;DHT22;4613;48.392;9.998;2023-02-03T03:49:02;4.10;99.90
9157;DHT22;4613;48.392;9.998;2023-02-03T03:52:03;4.10;99.90
9157;DHT22;4613;48.392;9.998;2023-02-03T03:54:56;4.10;99.90
9157;DHT22;4613;48.392;9.998;2023-02-03T03:57:55;4.10;99.90
9157;DHT22;4613;48.392;9.998;2023-02-03T04:00:47;4.10;99.90
9157;DHT22;4613;48.392;9.998;2023-02-03T04:03:47;4.10;99.90
9157;DHT22;4613;48.392;9.998;2023-02-03T04:06:38;4.20;99.90
9157;DHT22;4613;48.392;9.998;2023-02-03T04:09:29;4.20;99.90
9157;DHT22;4613;48.392;9.998;2023-02-03T04:12:22;4.10;99.90
9157;DHT22;4613;48.392;9.998;2023-02-03T04:15:11;4.20;99.90
9157;DHT22;4613;48.392;9.998;2023-02-03T04:18:01;4.20;99.90
9157;DHT22;4613;48.392;9.998;2023-02-03T04:20:51;4.20;99.90
9157;DHT22;4613;48.392;9.998;2023-02-03T04:23:40;4.30;99.90
9157;DHT22;4613;48.392;9.998;2023-02-03T04:26:29;4.30;99.90
9157;DHT22;4613;48.392;9.998;2023-02-03T04:29:19;4.20;99.90
9157;DHT22;4613;48.392;9.998;2023-02-03T04:32:08;4.20;99.90
9157;DHT22;4613;48.392;9.998;2023-02-03T04:34:57;4.20;99.90
9157;DHT22;4613;48.392;9.998;2023-02-03T04:37:46;4.20;99.90
9157;DHT22;4613;48.392;9.998;2023-02-03T04:40:35;4.20;99.90
9157;DHT22;4613;48.392;9.998;2023-02-03T04:43:25;4.30;99.90
9157;DHT22;4613;48.392;9.998;2023-02-03T04:46:15;4.30;99.90
9157;DHT22;4613;48.392;9.998;2023-02-03T04:49:04;4.30;99.90
9157;DHT22;4613;48.392;9.998;2023-02-03T04:51:54;4.20;99.90
9157;DHT22;4613;48.392;9.998;2023-02-03T04:54:43;4.20;99.90
9157;DHT22;4613;48.392;9.998;2023-02-03T04:57:33;4.20;99.90
9157;DHT22;4613;48.392;9.998;2023-02-03T05:00:22;4.20;99.90
9157;DHT22;4613;48.392;9.998;2023-02-03T05:03:12;4.30;99.90
9157;DHT22;4613;48.392;9.998;2023-02-03T05:06:01;4.20;99.90
9157;DHT22;4613;48.392;9.998;2023-02-03T05:08:54;4.20;99.90
9157;DHT22;4613;48.392;9.998;2023-02-03T05:11:53;4.10;99.90
9157;DHT22;4613;48.392;9.998;2023-02-03T05:14:42;4.10;99.90
9157;DHT22;4613;48.392;9.998;2023-02-03T05:17:32;4.00;99.90
9157;DHT22;4613;48.392;9.998;2023-02-03T05:20:28;4.10;99.90
9157;DHT22;4613;48.392;9.998;2023-02-03T05:23:17;4.20;99.90
9157;DHT22;4613;48.392;9.998;2023-02-03T05:26:07;4.10;99.90
9157;DHT22;4613;48.392;9.998;2023-02-03T05:28:57;4.10;99.90
9157;DHT22;4613;48.392;9.998;2023-02-03T05:31:48;4.10;99.90
9157;DHT22;4613;48.392;9.998;2023-02-03T05:34:37;4.10;99.90
9157;DHT22;4613;48.392;9.998;2023-02-03T05:37:26;4.10;99.90
9157;DHT22;4613;48.392;9.998;2023-02-03T05:40:16;4.10;99.90
9157;DHT22;4613;48.392;9.998;2023-02-03T05:43:24;4.00;99.90
9157;DHT22;4613;48.392;9.998;2023-02-03T05:46:16;4.00;99.90
9157;DHT22;4613;48.392;9.998;2023-02-03T05:49:08;4.00;99.90
9157;DHT22;4613;48.392;9.998;2023-02-03T05:51:58;4.00;99.90
9157;DHT22;4613;48.392;9.998;2023-02-03T05:54:47;4.10;99.90
9157;DHT22;4613;48.392;9.998;2023-02-03T05:57:37;4.10;99.90
9157;DHT22;4613;48.392;9.998;2023-02-03T06:00:27;4.10;99.90
9157;DHT22;4613;48.392;9.998;2023-02-03T06:03:17;4.00;99.90
9157;DHT22;4613;48.392;9.998;2023-02-03T06:06:06;4.10;99.90
9157;DHT22;4613;48.392;9.998;2023-02-03T06:08:56;4.10;99.90
9157;DHT22;4613;48.392;9.998;2023-02-03T06:11:46;4.00;99.90
9157;DHT22;4613;48.392;9.998;2023-02-03T06:14:35;4.00;99.90
9157;DHT22;4613;48.392;9.998;2023-02-03T06:17:24;4.00;99.90
9157;DHT22;4613;48.392;9.998;2023-02-03T06:20:16;4.00;99.90
9157;DHT22;4613;48.392;9.998;2023-02-03T06:23:05;3.90;99.90
9157;DHT22;4613;48.392;9.998;2023-02-03T06:25:55;4.00;99.90
9157;DHT22;4613;48.392;9.998;2023-02-03T06:28:44;3.90;99.90
9157;DHT22;4613;48.392;9.998;2023-02-03T06:31:33;3.90;99.90
9157;DHT22;4613;48.392;9.998;2023-02-03T06:34:22;3.80;99.90
9157;DHT22;4613;48.392;9.998;2023-02-03T06:37:12;3.80;99.90
9157;DHT22;4613;48.392;9.998;2023-02-03T06:40:01;3.80;99.90
9157;DHT22;4613;48.392;9.998;2023-02-03T06:42:55;3.90;99.90
9157;DHT22;4613;48.392;9.998;2023-02-03T06:45:45;3.80;99.90
9157;DHT22;4613;48.392;9.998;2023-02-03T06:48:37;4.00;99.90
9157;DHT22;4613;48.392;9.998;2023-02-03T06:51:26;3.90;99.90
9157;DHT22;4613;48.392;9.998;2023-02-03T06:54:16;3.80;99.90
9157;DHT22;4613;48.392;9.998;2023-02-03T06:57:06;3.80;99.90
9157;DHT22;4613;48.392;9.998;2023-02-03T06:59:55;3.90;99.90
9157;DHT22;4613;48.392;9.998;2023-02-03T07:02:45;3.90;99.90
9157;DHT22;4613;48.392;9.998;2023-02-03T07:05:35;3.80;99.90
9157;DHT22;4613;48.392;9.998;2023-02-03T07:08:25;3.80;99.90
9157;DHT22;4613;48.392;9.998;2023-02-03T07:11:14;3.80;99.90
9157;DHT22;4613;48.392;9.998;2023-02-03T07:14:04;3.70;99.90
9157;DHT22;4613;48.392;9.998;2023-02-03T07:16:53;3.80;99.90
9157;DHT22;4613;48.392;9.998;2023-02-03T07:19:43;3.90;99.90
9157;DHT22;4613;48.392;9.998;2023-02-03T07:22:32;3.90;99.90
9157;DHT22;4613;48.392;9.998;2023-02-03T07:25:22;3.90;99.90
9157;DHT22;4613;48.392;9.998;2023-02-03T07:28:12;3.90;99.90
9157;DHT22;4613;48.392;9.998;2023-02-03T07:31:04;3.80;99.90
9157;DHT22;4613;48.392;9.998;2023-02-03T07:33:58;3.70;99.90
9157;DHT22;4613;48.392;9.998;2023-02-03T07:36:49;3.80;99.90
9157;DHT22;4613;48.392;9.998;2023-02-03T07:39:38;3.80;99.90
9157;DHT22;4613;48.392;9.998;2023-02-03T07:42:28;3.90;99.90
9157;DHT22;4613;48.392;9.998;2023-02-03T07:45:18;3.80;99.90
9157;DHT22;4613;48.392;9.998;2023-02-03T07:48:08;3.90;99.90
9157;DHT22;4613;48.392;9.998;2023-02-03T07:50:58;3.90;99.90
9157;DHT22;4613;48.392;9.998;2023-02-03T07:53:47;3.90;99.90
9157;DHT22;4613;48.392;9.998;2023-02-03T07:56:36;4.00;99.90
9157;DHT22;4613;48.392;9.998;2023-02-03T07:59:26;4.10;99.90
9157;DHT22;4613;48.392;9.998;2023-02-03T08:02:16;4.10;99.90
9157;DHT22;4613;48.392;9.998;2023-02-03T08:05:05;4.10;99.90
9157;DHT22;4613;48.392;9.998;2023-02-03T08:07:55;4.10;99.90
9157;DHT22;4613;48.392;9.998;2023-02-03T08:10:45;4.10;99.90
9157;DHT22;4613;48.392;9.998;2023-02-03T08:13:34;4.20;99.90
9157;DHT22;4613;48.392;9.998;2023-02-03T08:16:24;4.20;99.90
9157;DHT22;4613;48.392;9.998;2023-02-03T08:19:13;4.10;99.90
9157;DHT22;4613;48.392;9.998;2023-02-03T08:22:02;4.20;99.90
9157;DHT22;4613;48.392;9.998;2023-02-03T08:24:51;4.20;99.90
9157;DHT22;4613;48.392;9.998;2023-02-03T08:27:44;4.30;99.90
9157;DHT22;4613;48.392;9.998;2023-02-03T08:30:34;4.20;99.90
9157;DHT22;4613;48.392;9.998;2023-02-03T08:33:24;4.30;99.90
9157;DHT22;4613;48.392;9.998;2023-02-03T08:36:13;4.20;99.90
9157;DHT22;4613;48.392;9.998;2023-02-03T08:39:02;4.30;99.90
9157;DHT22;4613;48.392;9.998;2023-02-03T08:41:51;4.30;99.90
9157;DHT22;4613;48.392;9.998;2023-02-03T08:44:41;4.20;99.90
9157;DHT22;4613;48.392;9.998;2023-02-03T08:47:32;4.30;99.90
9157;DHT22;4613;48.392;9.998;2023-02-03T08:50:21;4.30;99.90
9157;DHT22;4613;48.392;9.998;2023-02-03T08:53:11;4.30;99.90
9157;DHT22;4613;48.392;9.998;2023-02-03T08:56:07;4.30;99.90
9157;DHT22;4613;48.392;9.998;2023-02-03T08:58:57;4.40;99.90
9157;DHT22;4613;48.392;9.998;2023-02-03T09:01:46;4.40;99.90
9157;DHT22;4613;48.392;9.998;2023-02-03T09:04:36;4.50;99.90
9157;DHT22;4613;48.392;9.998;2023-02-03T09:07:26;4.50;99.90
9157;DHT22;4613;48.392;9.998;2023-02-03T09:10:15;4.40;99.90
9157;DHT22;4613;48.392;9.998;2023-02-03T09:13:05;4.40;99.90
9157;DHT22;4613;48.392;9.998;2023-02-03T09:15:54;4.50;99.90
9157;DHT22;4613;48.392;9.998;2023-02-03T09:18:47;4.40;99.90
9157;DHT22;4613;48.392;9.998;2023-02-03T09:21:37;4.50;99.90
9157;DHT22;4613;48.392;9.998;2023-02-03T09:24:27;4.50;99.90
9157;DHT22;4613;48.392;9.998;2023-02-03T09:27:16;4.40;99.90
9157;DHT22;4613;48.392;9.998;2023-02-03T09:30:08;4.60;99.90
9157;DHT22;4613;48.392;9.998;2023-02-03T09:32:58;4.60;99.90
9157;DHT22;4613;48.392;9.998;2023-02-03T09:35:55;4.40;99.90
9157;DHT22;4613;48.392;9.998;2023-02-03T09:38:44;4.50;99.90
9157;DHT22;4613;48.392;9.998;2023-02-03T09:47:33;4.70;99.90
9157;DHT22;4613;48.392;9.998;2023-02-03T09:50:27;4.70;99.90
9157;DHT22;4613;48.392;9.998;2023-02-03T09:56:39;4.70;99.90
9157;DHT22;4613;48.392;9.998;2023-02-03T09:59:30;4.80;99.90
9157;DHT22;4613;48.392;9.998;2023-02-03T10:18:19;4.80;99.90
9157;DHT22;4613;48.392;9.998;2023-02-03T10:27:55;4.80;99.90
9157;DHT22;4613;48.392;9.998;2023-02-03T10:30:54;4.80;99.90
9157;DHT22;4613;48.392;9.998;2023-02-03T10:33:45;4.90;99.90
9157;DHT22;4613;48.392;9.998;2023-02-03T10:39:57;5.00;99.90
9157;DHT22;4613;48.392;9.998;2023-02-03T10:42:48;5.00;99.90
9157;DHT22;4613;48.392;9.998;2023-02-03T10:45:57;5.10;99.90
9157;DHT22;4613;48.392;9.998;2023-02-03T10:48:47;5.20;99.90
9157;DHT22;4613;48.392;9.998;2023-02-03T10:51:50;5.20;99.90
9157;DHT22;4613;48.392;9.998;2023-02-03T10:54:43;5.20;99.90
9157;DHT22;4613;48.392;9.998;2023-02-03T10:57:37;5.20;99.90
9157;DHT22;4613;48.392;9.998;2023-02-03T11:00:30;5.20;99.90
9157;DHT22;4613;48.392;9.998;2023-02-03T11:03:24;5.00;99.90
9157;DHT22;4613;48.392;9.998;2023-02-03T11:06:16;5.20;99.90
9157;DHT22;4613;48.392;9.998;2023-02-03T11:09:22;5.30;99.90
9157;DHT22;4613;48.392;9.998;2023-02-03T11:12:18;5.40;99.90
9157;DHT22;4613;48.392;9.998;2023-02-03T11:15:13;5.40;99.90
9157;DHT22;4613;48.392;9.998;2023-02-03T11:18:03;5.90;99.90
9157;DHT22;4613;48.392;9.998;2023-02-03T11:20:53;5.80;99.90
9157;DHT22;4613;48.392;9.998;2023-02-03T11:24:19;5.70;99.90
9157;DHT22;4613;48.392;9.998;2023-02-03T11:27:11;5.50;99.90
9157;DHT22;4613;48.392;9.998;2023-02-03T11:30:10;5.50;99.90
9157;DHT22;4613;48.392;9.998;2023-02-03T11:33:02;5.60;99.90
9157;DHT22;4613;48.392;9.998;2023-02-03T11:36:03;5.60;99.90
9157;DHT22;4613;48.392;9.998;2023-02-03T11:39:27;5.70;99.90
9157;DHT22;4613;48.392;9.998;2023-02-03T11:42:23;5.70;99.90
9157;DHT22;4613;48.392;9.998;2023-02-03T11:45:28;5.70;99.90
9157;DHT22;4613;48.392;9.998;2023-02-03T11:48:37;5.70;99.90
9157;DHT22;4613;48.392;9.998;2023-02-03T11:54:54;5.80;99.90
9157;DHT22;4613;48.392;9.998;2023-02-03T11:58:05;5.80;99.90
9157;DHT22;4613;48.392;9.998;2023-02-03T12:07:43;5.80;99.90
9157;DHT22;4613;48.392;9.998;2023-02-03T12:20:02;6.00;99.90
9157;DHT22;4613;48.392;9.998;2023-02-03T12:26:25;6.00;99.90
9157;DHT22;4613;48.392;9.998;2023-02-03T12:41:27;6.30;99.90
9157;DHT22;4613;48.392;9.998;2023-02-03T12:44:45;6.30;99.90
9157;DHT22;4613;48.392;9.998;2023-02-03T12:47:47;6.40;99.90
9157;DHT22;4613;48.392;9.998;2023-02-03T12:50:41;6.50;99.90
9157;DHT22;4613;48.392;9.998;2023-02-03T12:53:38;6.50;99.90
9157;DHT22;4613;48.392;9.998;2023-02-03T12:56:36;6.50;99.90
9157;DHT22;4613;48.392;9.998;2023-02-03T12:59:29;6.60;99.90
9157;DHT22;4613;48.392;9.998;2023-02-03T13:02:27;6.60;99.90
9157;DHT22;4613;48.392;9.998;2023-02-03T13:05:45;6.70;99.90
9157;DHT22;4613;48.392;9.998;2023-02-03T13:08:49;6.70;99.90
9157;DHT22;4613;48.392;9.998;2023-02-03T13:11:47;6.80;99.90
9157;DHT22;4613;48.392;9.998;2023-02-03T13:17:54;6.70;99.90
9157;DHT22;4613;48.392;9.998;2023-02-03T13:20:45;6.80;99.90
9157;DHT22;4613;48.392;9.998;2023-02-03T13:23:35;6.90;99.90
9157;DHT22;4613;48.392;9.998;2023-02-03T13:27:04;6.80;99.90
9157;DHT22;4613;48.392;9.998;2023-02-03T13:39:14;6.80;99.90
9157;DHT22;4613;48.392;9.998;2023-02-03T13:42:25;6.90;99.90
9157;DHT22;4613;48.392;9.998;2023-02-03T13:45:32;6.80;99.90
9157;DHT22;4613;48.392;9.998;2023-02-03T13:48:28;6.80;99.90
9157;DHT22;4613;48.392;9.998;2023-02-03T13:51:25;6.80;99.90
9157;DHT22;4613;48.392;9.998;2023-02-03T13:57:34;6.80;99.90
9157;DHT22;4613;48.392;9.998;2023-02-03T14:12:35;6.70;99.90
9157;DHT22;4613;48.392;9.998;2023-02-03T14:15:29;6.70;99.90
9157;DHT22;4613;48.392;9.998;2023-02-03T14:18:34;6.60;99.90
9157;DHT22;4613;48.392;9.998;2023-02-03T14:24:47;6.60;99.90
9157;DHT22;4613;48.392;9.998;2023-02-03T14:27:37;6.70;99.90
9157;DHT22;4613;48.392;9.998;2023-02-03T14:30:27;6.60;99.90
9157;DHT22;4613;48.392;9.998;2023-02-03T14:33:17;6.60;99.90
9157;DHT22;4613;48.392;9.998;2023-02-03T14:36:28;6.60;99.90
9157;DHT22;4613;48.392;9.998;2023-02-03T14:48:45;6.60;99.90
9157;DHT22;4613;48.392;9.998;2023-02-03T14:58:22;6.60;99.90
9157;DHT22;4613;48.392;9.998;2023-02-03T15:04:34;6.50;99.90
9157;DHT22;4613;48.392;9.998;2023-02-03T15:07:40;6.40;99.90
9157;DHT22;4613;48.392;9.998;2023-02-03T15:10:41;6.40;99.90
9157;DHT22;4613;48.392;9.998;2023-02-03T15:13:30;6.40;99.90
9157;DHT22;4613;48.392;9.998;2023-02-03T15:16:23;6.40;99.90
9157;DHT22;4613;48.392;9.998;2023-02-03T15:19:18;6.40;99.90
9157;DHT22;4613;48.392;9.998;2023-02-03T15:22:22;6.40;99.90
9157;DHT22;4613;48.392;9.998;2023-02-03T15:25:16;6.40;99.90
9157;DHT22;4613;48.392;9.998;2023-02-03T15:28:16;6.30;99.90
9157;DHT22;4613;48.392;9.998;2023-02-03T15:34:26;6.40;99.90
9157;DHT22;4613;48.392;9.998;2023-02-03T15:40:19;6.40;99.90
9157;DHT22;4613;48.392;9.998;2023-02-03T15:46:38;6.40;99.90
9157;DHT22;4613;48.392;9.998;2023-02-03T15:49:33;6.40;99.90
9157;DHT22;4613;48.392;9.998;2023-02-03T15:52:24;6.40;99.90
9157;DHT22;4613;48.392;9.998;2023-02-03T15:58:26;6.40;99.90
9157;DHT22;4613;48.392;9.998;2023-02-03T16:01:20;6.40;99.90
9157;DHT22;4613;48.392;9.998;2023-02-03T16:04:11;6.60;99.90
9157;DHT22;4613;48.392;9.998;2023-02-03T16:07:03;6.40;99.90
9157;DHT22;4613;48.392;9.998;2023-02-03T16:09:54;6.30;99.90
9157;DHT22;4613;48.392;9.998;2023-02-03T16:12:44;6.30;99.90
9157;DHT22;4613;48.392;9.998;2023-02-03T16:15:34;6.30;99.90
9157;DHT22;4613;48.392;9.998;2023-02-03T16:18:28;6.30;99.90
9157;DHT22;4613;48.392;9.998;2023-02-03T16:21:36;6.30;99.90
9157;DHT22;4613;48.392;9.998;2023-02-03T16:30:20;6.20;99.90
9157;DHT22;4613;48.392;9.998;2023-02-03T16:33:31;6.20;99.90
9157;DHT22;4613;48.392;9.998;2023-02-03T16:36:42;6.10;99.90
9157;DHT22;4613;48.392;9.998;2023-02-03T16:40:00;6.10;99.90
9157;DHT22;4613;48.392;9.998;2023-02-03T16:43:14;6.10;99.90
9157;DHT22;4613;48.392;9.998;2023-02-03T16:46:22;6.10;99.90
9157;DHT22;4613;48.392;9.998;2023-02-03T16:49:30;6.00;99.90
9157;DHT22;4613;48.392;9.998;2023-02-03T16:52:38;6.00;99.90
9157;DHT22;4613;48.392;9.998;2023-02-03T16:55:28;5.90;99.90
9157;DHT22;4613;48.392;9.998;2023-02-03T16:58:18;6.00;99.90
9157;DHT22;4613;48.392;9.998;2023-02-03T17:01:09;6.00;99.90
9157;DHT22;4613;48.392;9.998;2023-02-03T17:03:59;6.00;99.90
9157;DHT22;4613;48.392;9.998;2023-02-03T17:06:49;5.90;99.90
9157;DHT22;4613;48.392;9.998;2023-02-03T17:09:39;6.00;99.90
9157;DHT22;4613;48.392;9.998;2023-02-03T17:12:28;5.90;99.90
9157;DHT22;4613;48.392;9.998;2023-02-03T17:15:19;5.90;99.90
9157;DHT22;4613;48.392;9.998;2023-02-03T17:18:09;5.90;99.90
9157;DHT22;4613;48.392;9.998;2023-02-03T17:21:04;5.90;99.90
9157;DHT22;4613;48.392;9.998;2023-02-03T17:23:57;5.90;99.90
9157;DHT22;4613;48.392;9.998;2023-02-03T17:26:48;5.90;99.90
9157;DHT22;4613;48.392;9.998;2023-02-03T17:29:38;5.80;99.90
9157;DHT22;4613;48.392;9.998;2023-02-03T17:32:27;5.80;99.90
9157;DHT22;4613;48.392;9.998;2023-02-03T17:35:17;5.80;99.90
9157;DHT22;4613;48.392;9.998;2023-02-03T17:38:07;5.80;99.90
9157;DHT22;4613;48.392;9.998;2023-02-03T17:40:57;5.70;99.90
9157;DHT22;4613;48.392;9.998;2023-02-03T17:43:48;5.70;99.90
9157;DHT22;4613;48.392;9.998;2023-02-03T17:46:38;5.70;99.90
9157;DHT22;4613;48.392;9.998;2023-02-03T17:49:28;5.60;99.90
9157;DHT22;4613;48.392;9.998;2023-02-03T17:52:18;5.50;99.90
9157;DHT22;4613;48.392;9.998;2023-02-03T17:55:10;5.60;99.90
9157;DHT22;4613;48.392;9.998;2023-02-03T17:58:00;5.50;99.90
9157;DHT22;4613;48.392;9.998;2023-02-03T18:00:50;5.50;99.90
9157;DHT22;4613;48.392;9.998;2023-02-03T18:03:44;5.40;99.90
9157;DHT22;4613;48.392;9.998;2023-02-03T18:06:35;5.40;99.90
9157;DHT22;4613;48.392;9.998;2023-02-03T18:09:24;5.30;99.90
9157;DHT22;4613;48.392;9.998;2023-02-03T18:12:14;5.40;99.90
9157;DHT22;4613;48.392;9.998;2023-02-03T18:15:04;5.30;99.90
9157;DHT22;4613;48.392;9.998;2023-02-03T18:17:53;5.40;99.90
9157;DHT22;4613;48.392;9.998;2023-02-03T18:20:43;5.40;99.90
9157;DHT22;4613;48.392;9.998;2023-02-03T18:23:32;5.30;99.90
9157;DHT22;4613;48.392;9.998;2023-02-03T18:26:24;5.30;99.90
9157;DHT22;4613;48.392;9.998;2023-02-03T18:29:13;5.30;99.90
9157;DHT22;4613;48.392;9.998;2023-02-03T18:32:04;5.30;99.90
9157;DHT22;4613;48.392;9.998;2023-02-03T18:34:55;5.30;99.90
9157;DHT22;4613;48.392;9.998;2023-02-03T18:37:45;5.30;99.90
9157;DHT22;4613;48.392;9.998;2023-02-03T18:40:36;5.30;99.90
9157;DHT22;4613;48.392;9.998;2023-02-03T18:43:26;5.30;99.90
9157;DHT22;4613;48.392;9.998;2023-02-03T18:46:22;5.30;99.90
9157;DHT22;4613;48.392;9.998;2023-02-03T18:49:15;5.30;99.90
9157;DHT22;4613;48.392;9.998;2023-02-03T18:52:04;5.20;99.90
9157;DHT22;4613;48.392;9.998;2023-02-03T18:54:53;5.20;99.90
9157;DHT22;4613;48.392;9.998;2023-02-03T18:57:44;5.20;99.90
9157;DHT22;4613;48.392;9.998;2023-02-03T19:00:37;5.10;99.90
9157;DHT22;4613;48.392;9.998;2023-02-03T19:03:28;5.20;99.90
9157;DHT22;4613;48.392;9.998;2023-02-03T19:06:17;5.10;99.90
9157;DHT22;4613;48.392;9.998;2023-02-03T19:09:08;5.10;99.90
9157;DHT22;4613;48.392;9.998;2023-02-03T19:11:57;5.10;99.90
9157;DHT22;4613;48.392;9.998;2023-02-03T19:14:48;5.10;99.90
9157;DHT22;4613;48.392;9.998;2023-02-03T19:17:38;5.20;99.90
9157;DHT22;4613;48.392;9.998;2023-02-03T19:20:27;5.10;99.90
9157;DHT22;4613;48.392;9.998;2023-02-03T19:23:17;5.10;99.90
9157;DHT22;4613;48.392;9.998;2023-02-03T19:26:07;5.00;99.90
9157;DHT22;4613;48.392;9.998;2023-02-03T19:29:01;5.10;99.90
9157;DHT22;4613;48.392;9.998;2023-02-03T19:31:51;5.00;99.90
9157;DHT22;4613;48.392;9.998;2023-02-03T19:34:40;5.10;99.90
9157;DHT22;4613;48.392;9.998;2023-02-03T19:37:30;5.10;99.90
9157;DHT22;4613;48.392;9.998;2023-02-03T19:40:19;5.10;99.90
9157;DHT22;4613;48.392;9.998;2023-02-03T19:43:09;5.10;99.90
9157;DHT22;4613;48.392;9.998;2023-02-03T19:45:58;5.10;99.90
9157;DHT22;4613;48.392;9.998;2023-02-03T19:48:48;5.10;99.90
9157;DHT22;4613;48.392;9.998;2023-02-03T19:51:39;5.10;99.90
9157;DHT22;4613;48.392;9.998;2023-02-03T19:54:28;5.10;99.90
9157;DHT22;4613;48.392;9.998;2023-02-03T19:57:18;5.10;99.90
9157;DHT22;4613;48.392;9.998;2023-02-03T20:00:08;5.10;99.90
9157;DHT22;4613;48.392;9.998;2023-02-03T20:03:02;5.10;99.90
9157;DHT22;4613;48.392;9.998;2023-02-03T20:05:52;5.20;99.90
9157;DHT22;4613;48.392;9.998;2023-02-03T20:08:41;5.10;99.90
9157;DHT22;4613;48.392;9.998;2023-02-03T20:11:31;5.10;99.90
9157;DHT22;4613;48.392;9.998;2023-02-03T20:14:21;5.20;99.90
9157;DHT22;4613;48.392;9.998;2023-02-03T20:17:11;5.20;99.90
9157;DHT22;4613;48.392;9.998;2023-02-03T20:20:01;5.20;99.90
9157;DHT22;4613;48.392;9.998;2023-02-03T20:22:50;5.10;99.90
9157;DHT22;4613;48.392;9.998;2023-02-03T20:25:39;5.10;99.90
9157;DHT22;4613;48.392;9.998;2023-02-03T20:28:31;5.10;99.90
9157;DHT22;4613;48.392;9.998;2023-02-03T20:31:22;5.10;99.90
9157;DHT22;4613;48.392;9.998;2023-02-03T20:34:12;5.00;99.90
9157;DHT22;4613;48.392;9.998;2023-02-03T20:37:04;5.10;99.90
9157;DHT22;4613;48.392;9.998;2023-02-03T20:39:54;5.00;99.90
9157;DHT22;4613;48.392;9.998;2023-02-03T20:42:44;5.00;99.90
9157;DHT22;4613;48.392;9.998;2023-02-03T20:45:34;5.00;99.90
9157;DHT22;4613;48.392;9.998;2023-02-03T20:48:25;5.00;99.90
9157;DHT22;4613;48.392;9.998;2023-02-03T20:51:17;5.00;99.90
9157;DHT22;4613;48.392;9.998;2023-02-03T20:54:18;5.00;99.90
9157;DHT22;4613;48.392;9.998;2023-02-03T20:57:14;5.00;99.90
9157;DHT22;4613;48.392;9.998;2023-02-03T21:03:03;5.10;99.90
9157;DHT22;4613;48.392;9.998;2023-02-03T21:06:16;5.20;99.90
9157;DHT22;4613;48.392;9.998;2023-02-03T21:09:25;5.00;99.90
9157;DHT22;4613;48.392;9.998;2023-02-03T21:12:15;5.00;99.90
9157;DHT22;4613;48.392;9.998;2023-02-03T21:15:17;5.00;99.90
9157;DHT22;4613;48.392;9.998;2023-02-03T21:21:37;5.10;99.90
9157;DHT22;4613;48.392;9.998;2023-02-03T21:24:32;5.10;99.90
9157;DHT22;4613;48.392;9.998;2023-02-03T21:30:27;5.10;99.90
9157;DHT22;4613;48.392;9.998;2023-02-03T21:33:28;5.00;99.90
9157;DHT22;4613;48.392;9.998;2023-02-03T21:36:23;5.10;99.90
9157;DHT22;4613;48.392;9.998;2023-02-03T21:39:28;5.10;99.90
9157;DHT22;4613;48.392;9.998;2023-02-03T21:42:31;5.10;99.90
9157;DHT22;4613;48.392;9.998;2023-02-03T21:45:36;5.10;99.90
9157;DHT22;4613;48.392;9.998;2023-02-03T21:48:27;5.10;99.90
9157;DHT22;4613;48.392;9.998;2023-02-03T21:51:25;5.10;99.90
9157;DHT22;4613;48.392;9.998;2023-02-03T21:54:31;5.10;99.90
9157;DHT22;4613;48.392;9.998;2023-02-03T21:57:22;5.10;99.90
9157;DHT22;4613;48.392;9.998;2023-02-03T22:00:35;5.10;99.90